Fruita, CO (81521)

11:23 AM MDT on July 23, 2016 (GMT -0600)
Roberson Subdivision | | Change Station

Elev 4514 ft 39.17 °N, 108.74 °W | Updated 42 seconds ago

Clear
Clear
91.0 °F
Feels Like 89 °F
N
0.7
Wind Variable Wind from ESE
Gusts 1.6 mph

Today
High -- | Low -- °F
--% Chance of Precip.
Yesterday
High -- | Low -- °F
Precip. -- in
Pressure 29.94 in
Visibility 10.0 miles
Clouds Clear
Heat Index 89 °F
Dew Point 53 °F
Humidity 28%
Rainfall 0.00 in
Snow Depth Not available.
6:07 AM 8:34 PM
Waning Gibbous, 84% visible
METAR KGJT 231653Z 13006KT 10SM CLR 28/11 A3016 RMK AO2 SLP137 T02780111
Pressure 29.94 in
Visibility 10.0 miles
Clouds Clear
Heat Index 89 °F
Dew Point 53 °F
Humidity 28%
Rainfall 0.00 in
Snow Depth Not available.
6:07 AM 8:34 PM
Waning Gibbous, 84% visible
METAR KGJT 231653Z 13006KT 10SM CLR 28/11 A3016 RMK AO2 SLP137 T02780111

10-Day Weather Forecast

Almanac

Astronomy

Jul. 23, 2016 Rise Set
Actual Time
Civil Twilight
Nautical Twilight
Astronomical Twilight
Moon
Length of Visible Light
Length of Day
Tomorrow will be .
, % of the Moon is Illuminated

Today's Extremes

State Highs State Lows

Community

WunderPhotos

Upload Photos

1,926,875 photos uploaded!

WunderBlog® & News

Nearby

Air Quality

  Air Quality AQ Index Pollutant
Not available.

Snow Depth

Station Depth Elevation

Earthquake Activity

City Distance Mag. Time & Date
Minimum magnitude displayed is 2.5.

Coastal Water Temperatures

Place Temperature

Stations

Nearby Weather Stations

Station Location Temp. Windchill Dew Point Humidity Wind Precip. Elev Updated Type
                   

Watches & Warnings

There are currently no watches in effect.